sensor_id;sensor_type;location;lat;lon;timestamp;P1;durP1;ratioP1;P2;durP2;ratioP2
78844;SDS011;68195;50.854;2.860;2023-04-06T00:00:22;24.52;;;13.85;;
78844;SDS011;68195;50.854;2.860;2023-04-06T00:02:51;23.38;;;13.88;;
78844;SDS011;68195;50.854;2.860;2023-04-06T00:05:19;25.63;;;13.38;;
78844;SDS011;68195;50.854;2.860;2023-04-06T00:07:45;24.15;;;13.48;;
78844;SDS011;68195;50.854;2.860;2023-04-06T00:10:13;23.17;;;12.63;;
78844;SDS011;68195;50.854;2.860;2023-04-06T00:12:39;23.15;;;13.38;;
78844;SDS011;68195;50.854;2.860;2023-04-06T00:15:07;23.90;;;12.55;;
78844;SDS011;68195;50.854;2.860;2023-04-06T00:17:32;22.98;;;11.95;;
78844;SDS011;68195;50.854;2.860;2023-04-06T00:19:58;26.00;;;12.52;;
78844;SDS011;68195;50.854;2.860;2023-04-06T00:22:26;24.23;;;13.60;;
78844;SDS011;68195;50.854;2.860;2023-04-06T00:24:56;26.65;;;12.63;;
78844;SDS011;68195;50.854;2.860;2023-04-06T00:27:21;24.00;;;11.95;;
78844;SDS011;68195;50.854;2.860;2023-04-06T00:29:49;23.85;;;12.65;;
78844;SDS011;68195;50.854;2.860;2023-04-06T00:32:15;21.98;;;12.65;;
78844;SDS011;68195;50.854;2.860;2023-04-06T00:34:43;22.90;;;11.27;;
78844;SDS011;68195;50.854;2.860;2023-04-06T00:37:11;18.20;;;11.77;;
78844;SDS011;68195;50.854;2.860;2023-04-06T00:39:39;21.40;;;11.68;;
78844;SDS011;68195;50.854;2.860;2023-04-06T00:42:10;19.50;;;11.77;;
78844;SDS011;68195;50.854;2.860;2023-04-06T00:44:45;23.02;;;11.98;;
78844;SDS011;68195;50.854;2.860;2023-04-06T00:47:10;23.30;;;12.30;;
78844;SDS011;68195;50.854;2.860;2023-04-06T00:49:38;22.08;;;12.52;;
78844;SDS011;68195;50.854;2.860;2023-04-06T00:52:03;23.23;;;11.95;;
78844;SDS011;68195;50.854;2.860;2023-04-06T00:54:33;20.40;;;11.68;;
78844;SDS011;68195;50.854;2.860;2023-04-06T00:57:03;22.27;;;11.45;;
78844;SDS011;68195;50.854;2.860;2023-04-06T00:59:29;19.23;;;11.07;;
78844;SDS011;68195;50.854;2.860;2023-04-06T01:01:55;16.83;;;10.95;;
78844;SDS011;68195;50.854;2.860;2023-04-06T01:04:23;20.27;;;11.48;;
78844;SDS011;68195;50.854;2.860;2023-04-06T01:06:49;20.50;;;12.23;;
78844;SDS011;68195;50.854;2.860;2023-04-06T01:09:17;20.35;;;11.45;;
78844;SDS011;68195;50.854;2.860;2023-04-06T01:11:42;18.42;;;10.40;;
78844;SDS011;68195;50.854;2.860;2023-04-06T01:14:10;18.48;;;10.73;;
78844;SDS011;68195;50.854;2.860;2023-04-06T01:16:38;17.83;;;11.25;;
78844;SDS011;68195;50.854;2.860;2023-04-06T01:19:10;18.85;;;10.68;;
78844;SDS011;68195;50.854;2.860;2023-04-06T01:21:37;17.08;;;10.68;;
78844;SDS011;68195;50.854;2.860;2023-04-06T01:24:05;17.33;;;10.20;;
78844;SDS011;68195;50.854;2.860;2023-04-06T01:26:32;19.98;;;11.93;;
78844;SDS011;68195;50.854;2.860;2023-04-06T01:29:00;17.35;;;10.82;;
78844;SDS011;68195;50.854;2.860;2023-04-06T01:31:31;16.83;;;9.88;;
78844;SDS011;68195;50.854;2.860;2023-04-06T01:33:56;17.98;;;11.30;;
78844;SDS011;68195;50.854;2.860;2023-04-06T01:36:24;16.48;;;10.02;;
78844;SDS011;68195;50.854;2.860;2023-04-06T01:38:50;19.33;;;10.82;;
78844;SDS011;68195;50.854;2.860;2023-04-06T01:41:19;18.40;;;10.32;;
78844;SDS011;68195;50.854;2.860;2023-04-06T01:43:47;18.52;;;10.10;;
78844;SDS011;68195;50.854;2.860;2023-04-06T01:46:14;17.02;;;10.70;;
78844;SDS011;68195;50.854;2.860;2023-04-06T01:48:40;17.88;;;11.02;;
78844;SDS011;68195;50.854;2.860;2023-04-06T01:51:05;19.30;;;11.25;;
78844;SDS011;68195;50.854;2.860;2023-04-06T01:53:36;16.63;;;10.30;;
78844;SDS011;68195;50.854;2.860;2023-04-06T01:56:01;18.90;;;11.32;;
78844;SDS011;68195;50.854;2.860;2023-04-06T01:58:27;16.70;;;10.50;;
78844;SDS011;68195;50.854;2.860;2023-04-06T02:00:52;19.15;;;10.82;;
78844;SDS011;68195;50.854;2.860;2023-04-06T02:03:20;18.35;;;11.07;;
78844;SDS011;68195;50.854;2.860;2023-04-06T02:05:45;20.80;;;11.68;;
78844;SDS011;68195;50.854;2.860;2023-04-06T02:08:11;17.25;;;10.07;;
78844;SDS011;68195;50.854;2.860;2023-04-06T02:10:36;22.52;;;10.73;;
78844;SDS011;68195;50.854;2.860;2023-04-06T02:13:06;19.63;;;10.88;;
78844;SDS011;68195;50.854;2.860;2023-04-06T02:15:32;18.27;;;10.80;;
78844;SDS011;68195;50.854;2.860;2023-04-06T02:17:57;17.63;;;10.80;;
78844;SDS011;68195;50.854;2.860;2023-04-06T02:20:23;22.27;;;11.98;;
78844;SDS011;68195;50.854;2.860;2023-04-06T02:22:51;23.95;;;11.30;;
78844;SDS011;68195;50.854;2.860;2023-04-06T02:25:18;18.23;;;10.93;;
78844;SDS011;68195;50.854;2.860;2023-04-06T02:27:46;20.23;;;11.10;;
78844;SDS011;68195;50.854;2.860;2023-04-06T02:30:14;17.95;;;10.73;;
78844;SDS011;68195;50.854;2.860;2023-04-06T02:32:42;19.52;;;11.82;;
78844;SDS011;68195;50.854;2.860;2023-04-06T02:35:08;18.40;;;11.15;;
78844;SDS011;68195;50.854;2.860;2023-04-06T02:37:36;23.95;;;11.98;;
78844;SDS011;68195;50.854;2.860;2023-04-06T02:40:03;16.67;;;10.38;;
78844;SDS011;68195;50.854;2.860;2023-04-06T02:42:29;16.50;;;11.25;;
78844;SDS011;68195;50.854;2.860;2023-04-06T02:44:55;20.55;;;11.52;;
78844;SDS011;68195;50.854;2.860;2023-04-06T02:47:25;20.85;;;11.77;;
78844;SDS011;68195;50.854;2.860;2023-04-06T02:49:53;18.85;;;10.85;;
78844;SDS011;68195;50.854;2.860;2023-04-06T02:52:20;18.75;;;11.05;;
78844;SDS011;68195;50.854;2.860;2023-04-06T02:54:45;21.15;;;11.57;;
78844;SDS011;68195;50.854;2.860;2023-04-06T02:57:11;23.05;;;11.73;;
78844;SDS011;68195;50.854;2.860;2023-04-06T02:59:41;19.95;;;12.15;;
78844;SDS011;68195;50.854;2.860;2023-04-06T03:02:08;20.40;;;11.20;;
78844;SDS011;68195;50.854;2.860;2023-04-06T03:04:36;20.17;;;10.95;;
78844;SDS011;68195;50.854;2.860;2023-04-06T03:07:06;20.65;;;11.70;;
78844;SDS011;68195;50.854;2.860;2023-04-06T03:09:36;23.30;;;12.20;;
78844;SDS011;68195;50.854;2.860;2023-04-06T03:12:02;16.55;;;10.90;;
78844;SDS011;68195;50.854;2.860;2023-04-06T03:14:30;16.95;;;11.13;;
78844;SDS011;68195;50.854;2.860;2023-04-06T03:16:56;17.83;;;10.02;;
78844;SDS011;68195;50.854;2.860;2023-04-06T03:19:21;18.38;;;10.32;;
78844;SDS011;68195;50.854;2.860;2023-04-06T03:21:46;19.13;;;11.38;;
78844;SDS011;68195;50.854;2.860;2023-04-06T03:24:12;15.25;;;9.23;;
78844;SDS011;68195;50.854;2.860;2023-04-06T03:26:40;16.10;;;9.73;;
78844;SDS011;68195;50.854;2.860;2023-04-06T03:29:05;16.55;;;9.10;;
78844;SDS011;68195;50.854;2.860;2023-04-06T03:31:30;17.20;;;10.13;;
78844;SDS011;68195;50.854;2.860;2023-04-06T03:33:58;14.35;;;8.88;;
78844;SDS011;68195;50.854;2.860;2023-04-06T03:36:26;17.70;;;8.82;;
78844;SDS011;68195;50.854;2.860;2023-04-06T03:38:51;15.32;;;8.77;;
78844;SDS011;68195;50.854;2.860;2023-04-06T03:41:18;11.43;;;7.10;;
78844;SDS011;68195;50.854;2.860;2023-04-06T03:43:46;12.98;;;7.38;;
78844;SDS011;68195;50.854;2.860;2023-04-06T03:46:14;11.13;;;6.75;;
78844;SDS011;68195;50.854;2.860;2023-04-06T03:48:40;13.77;;;7.30;;
78844;SDS011;68195;50.854;2.860;2023-04-06T03:51:05;10.70;;;6.55;;
78844;SDS011;68195;50.854;2.860;2023-04-06T03:53:35;10.27;;;6.72;;
78844;SDS011;68195;50.854;2.860;2023-04-06T03:56:02;13.48;;;6.72;;
78844;SDS011;68195;50.854;2.860;2023-04-06T03:58:27;11.18;;;7.20;;
78844;SDS011;68195;50.854;2.860;2023-04-06T04:00:57;13.93;;;8.00;;
78844;SDS011;68195;50.854;2.860;2023-04-06T04:03:22;14.73;;;7.60;;
78844;SDS011;68195;50.854;2.860;2023-04-06T04:05:52;12.23;;;6.97;;
78844;SDS011;68195;50.854;2.860;2023-04-06T04:08:18;14.43;;;7.25;;
78844;SDS011;68195;50.854;2.860;2023-04-06T04:10:49;14.88;;;8.02;;
78844;SDS011;68195;50.854;2.860;2023-04-06T04:13:17;15.20;;;7.47;;
78844;SDS011;68195;50.854;2.860;2023-04-06T04:15:42;12.63;;;7.65;;
78844;SDS011;68195;50.854;2.860;2023-04-06T04:18:07;12.98;;;7.38;;
78844;SDS011;68195;50.854;2.860;2023-04-06T04:20:40;12.40;;;7.32;;
78844;SDS011;68195;50.854;2.860;2023-04-06T04:23:05;12.70;;;7.70;;
78844;SDS011;68195;50.854;2.860;2023-04-06T04:25:31;14.05;;;8.43;;
78844;SDS011;68195;50.854;2.860;2023-04-06T04:27:56;11.98;;;7.78;;
78844;SDS011;68195;50.854;2.860;2023-04-06T04:30:21;11.90;;;7.53;;
78844;SDS011;68195;50.854;2.860;2023-04-06T04:32:47;13.95;;;8.10;;
78844;SDS011;68195;50.854;2.860;2023-04-06T04:35:15;14.02;;;7.15;;
78844;SDS011;68195;50.854;2.860;2023-04-06T04:37:45;13.63;;;7.07;;
78844;SDS011;68195;50.854;2.860;2023-04-06T04:40:12;12.05;;;7.05;;
78844;SDS011;68195;50.854;2.860;2023-04-06T04:42:38;11.27;;;6.97;;
78844;SDS011;68195;50.854;2.860;2023-04-06T04:45:03;10.13;;;6.68;;
78844;SDS011;68195;50.854;2.860;2023-04-06T04:47:29;9.63;;;5.80;;
78844;SDS011;68195;50.854;2.860;2023-04-06T04:49:58;10.90;;;6.10;;
78844;SDS011;68195;50.854;2.860;2023-04-06T04:52:23;11.00;;;6.72;;
78844;SDS011;68195;50.854;2.860;2023-04-06T04:54:51;12.38;;;5.97;;
78844;SDS011;68195;50.854;2.860;2023-04-06T04:57:16;9.55;;;5.90;;
78844;SDS011;68195;50.854;2.860;2023-04-06T04:59:42;10.38;;;5.63;;
78844;SDS011;68195;50.854;2.860;2023-04-06T05:02:10;7.95;;;5.00;;
78844;SDS011;68195;50.854;2.860;2023-04-06T05:04:36;9.05;;;5.03;;
78844;SDS011;68195;50.854;2.860;2023-04-06T05:07:07;7.88;;;4.50;;
78844;SDS011;68195;50.854;2.860;2023-04-06T05:09:38;10.15;;;5.57;;
78844;SDS011;68195;50.854;2.860;2023-04-06T05:12:05;8.50;;;4.60;;
78844;SDS011;68195;50.854;2.860;2023-04-06T05:14:31;5.57;;;3.50;;
78844;SDS011;68195;50.854;2.860;2023-04-06T05:16:59;6.65;;;3.90;;
78844;SDS011;68195;50.854;2.860;2023-04-06T05:19:25;6.40;;;3.90;;
78844;SDS011;68195;50.854;2.860;2023-04-06T05:21:50;6.18;;;3.90;;
78844;SDS011;68195;50.854;2.860;2023-04-06T05:24:16;7.10;;;3.75;;
78844;SDS011;68195;50.854;2.860;2023-04-06T05:26:41;7.43;;;4.25;;
78844;SDS011;68195;50.854;2.860;2023-04-06T05:29:06;8.70;;;4.00;;
78844;SDS011;68195;50.854;2.860;2023-04-06T05:31:32;7.00;;;3.92;;
78844;SDS011;68195;50.854;2.860;2023-04-06T05:33:57;7.57;;;4.55;;
78844;SDS011;68195;50.854;2.860;2023-04-06T05:36:28;8.02;;;4.40;;
78844;SDS011;68195;50.854;2.860;2023-04-06T05:38:53;7.53;;;4.22;;
78844;SDS011;68195;50.854;2.860;2023-04-06T05:41:21;7.43;;;4.30;;
78844;SDS011;68195;50.854;2.860;2023-04-06T05:43:48;8.20;;;5.00;;
78844;SDS011;68195;50.854;2.860;2023-04-06T05:46:16;5.10;;;4.05;;
78844;SDS011;68195;50.854;2.860;2023-04-06T05:48:44;5.25;;;3.88;;
78844;SDS011;68195;50.854;2.860;2023-04-06T05:51:12;6.43;;;4.25;;
78844;SDS011;68195;50.854;2.860;2023-04-06T05:53:42;6.72;;;3.92;;
78844;SDS011;68195;50.854;2.860;2023-04-06T05:56:07;6.75;;;4.65;;
78844;SDS011;68195;50.854;2.860;2023-04-06T05:58:33;7.05;;;4.65;;
78844;SDS011;68195;50.854;2.860;2023-04-06T06:00:59;9.43;;;5.63;;
78844;SDS011;68195;50.854;2.860;2023-04-06T06:03:25;7.30;;;5.18;;
78844;SDS011;68195;50.854;2.860;2023-04-06T06:05:51;6.32;;;4.32;;
78844;SDS011;68195;50.854;2.860;2023-04-06T06:08:18;9.13;;;4.78;;
78844;SDS011;68195;50.854;2.860;2023-04-06T06:10:44;10.68;;;4.40;;
78844;SDS011;68195;50.854;2.860;2023-04-06T06:13:12;7.50;;;4.65;;
78844;SDS011;68195;50.854;2.860;2023-04-06T06:15:37;8.50;;;4.93;;
78844;SDS011;68195;50.854;2.860;2023-04-06T06:18:03;6.55;;;4.38;;
78844;SDS011;68195;50.854;2.860;2023-04-06T06:20:28;8.82;;;5.05;;
78844;SDS011;68195;50.854;2.860;2023-04-06T06:22:53;8.98;;;5.80;;
78844;SDS011;68195;50.854;2.860;2023-04-06T06:25:24;8.20;;;5.28;;
78844;SDS011;68195;50.854;2.860;2023-04-06T06:27:51;9.18;;;4.45;;
78844;SDS011;68195;50.854;2.860;2023-04-06T06:30:17;8.15;;;5.00;;
78844;SDS011;68195;50.854;2.860;2023-04-06T06:32:42;9.77;;;5.13;;
78844;SDS011;68195;50.854;2.860;2023-04-06T06:35:11;9.75;;;5.40;;
78844;SDS011;68195;50.854;2.860;2023-04-06T06:37:38;8.48;;;5.32;;
78844;SDS011;68195;50.854;2.860;2023-04-06T06:40:06;11.85;;;5.93;;
78844;SDS011;68195;50.854;2.860;2023-04-06T06:42:33;9.02;;;5.60;;
78844;SDS011;68195;50.854;2.860;2023-04-06T06:44:59;9.35;;;5.43;;
78844;SDS011;68195;50.854;2.860;2023-04-06T06:47:26;9.30;;;5.93;;
78844;SDS011;68195;50.854;2.860;2023-04-06T06:49:52;9.88;;;6.05;;
78844;SDS011;68195;50.854;2.860;2023-04-06T06:52:20;10.68;;;5.55;;
78844;SDS011;68195;50.854;2.860;2023-04-06T06:54:49;10.45;;;5.82;;
78844;SDS011;68195;50.854;2.860;2023-04-06T06:57:14;13.32;;;6.55;;
78844;SDS011;68195;50.854;2.860;2023-04-06T06:59:42;10.18;;;6.47;;
78844;SDS011;68195;50.854;2.860;2023-04-06T07:02:09;10.82;;;6.18;;
78844;SDS011;68195;50.854;2.860;2023-04-06T07:04:38;10.95;;;6.65;;
78844;SDS011;68195;50.854;2.860;2023-04-06T07:07:05;10.68;;;6.57;;
78844;SDS011;68195;50.854;2.860;2023-04-06T07:09:31;11.65;;;6.88;;
78844;SDS011;68195;50.854;2.860;2023-04-06T07:11:57;12.27;;;6.55;;
78844;SDS011;68195;50.854;2.860;2023-04-06T07:14:22;11.68;;;7.25;;
78844;SDS011;68195;50.854;2.860;2023-04-06T07:16:48;10.20;;;7.15;;
78844;SDS011;68195;50.854;2.860;2023-04-06T07:19:17;10.27;;;6.82;;
78844;SDS011;68195;50.854;2.860;2023-04-06T07:21:42;12.85;;;8.00;;
78844;SDS011;68195;50.854;2.860;2023-04-06T07:24:08;12.95;;;7.60;;
78844;SDS011;68195;50.854;2.860;2023-04-06T07:26:33;12.13;;;7.70;;
78844;SDS011;68195;50.854;2.860;2023-04-06T07:28:59;15.98;;;8.60;;
78844;SDS011;68195;50.854;2.860;2023-04-06T07:31:27;14.07;;;7.72;;
78844;SDS011;68195;50.854;2.860;2023-04-06T07:33:53;15.25;;;8.40;;
78844;SDS011;68195;50.854;2.860;2023-04-06T07:36:18;14.73;;;8.32;;
78844;SDS011;68195;50.854;2.860;2023-04-06T07:38:46;18.13;;;8.98;;
78844;SDS011;68195;50.854;2.860;2023-04-06T07:41:14;15.70;;;8.43;;
78844;SDS011;68195;50.854;2.860;2023-04-06T07:43:39;13.60;;;8.32;;
78844;SDS011;68195;50.854;2.860;2023-04-06T07:46:05;14.60;;;8.35;;
78844;SDS011;68195;50.854;2.860;2023-04-06T07:48:33;17.85;;;8.88;;
78844;SDS011;68195;50.854;2.860;2023-04-06T07:51:02;16.70;;;8.95;;
78844;SDS011;68195;50.854;2.860;2023-04-06T07:53:28;19.35;;;9.38;;
78844;SDS011;68195;50.854;2.860;2023-04-06T07:55:55;17.77;;;8.93;;
78844;SDS011;68195;50.854;2.860;2023-04-06T07:58:23;17.58;;;8.63;;
78844;SDS011;68195;50.854;2.860;2023-04-06T08:00:48;16.23;;;9.70;;
78844;SDS011;68195;50.854;2.860;2023-04-06T08:03:14;17.17;;;9.82;;
78844;SDS011;68195;50.854;2.860;2023-04-06T08:05:44;17.98;;;9.38;;
78844;SDS011;68195;50.854;2.860;2023-04-06T08:08:10;14.88;;;9.10;;
78844;SDS011;68195;50.854;2.860;2023-04-06T08:10:35;17.75;;;10.68;;
78844;SDS011;68195;50.854;2.860;2023-04-06T08:13:08;14.43;;;9.23;;
78844;SDS011;68195;50.854;2.860;2023-04-06T08:15:33;17.98;;;11.23;;
78844;SDS011;68195;50.854;2.860;2023-04-06T08:18:01;19.98;;;10.13;;
78844;SDS011;68195;50.854;2.860;2023-04-06T08:20:26;16.27;;;10.32;;
78844;SDS011;68195;50.854;2.860;2023-04-06T08:22:52;16.90;;;10.35;;
78844;SDS011;68195;50.854;2.860;2023-04-06T08:25:20;18.73;;;9.95;;
78844;SDS011;68195;50.854;2.860;2023-04-06T08:27:47;16.42;;;9.68;;
78844;SDS011;68195;50.854;2.860;2023-04-06T08:30:13;19.17;;;11.45;;
78844;SDS011;68195;50.854;2.860;2023-04-06T08:32:40;17.13;;;10.15;;
78844;SDS011;68195;50.854;2.860;2023-04-06T08:35:08;17.50;;;9.90;;
78844;SDS011;68195;50.854;2.860;2023-04-06T08:37:36;21.00;;;11.52;;
78844;SDS011;68195;50.854;2.860;2023-04-06T08:40:02;17.80;;;9.60;;
78844;SDS011;68195;50.854;2.860;2023-04-06T08:42:28;17.20;;;10.38;;
78844;SDS011;68195;50.854;2.860;2023-04-06T08:44:57;15.60;;;9.57;;
78844;SDS011;68195;50.854;2.860;2023-04-06T08:47:23;18.70;;;10.13;;
78844;SDS011;68195;50.854;2.860;2023-04-06T08:49:51;15.85;;;10.90;;
78844;SDS011;68195;50.854;2.860;2023-04-06T08:52:18;14.88;;;9.70;;
78844;SDS011;68195;50.854;2.860;2023-04-06T08:54:49;18.70;;;10.32;;
78844;SDS011;68195;50.854;2.860;2023-04-06T08:57:17;18.40;;;10.05;;
78844;SDS011;68195;50.854;2.860;2023-04-06T08:59:44;18.80;;;11.40;;
78844;SDS011;68195;50.854;2.860;2023-04-06T09:02:11;18.58;;;11.07;;
78844;SDS011;68195;50.854;2.860;2023-04-06T09:04:42;16.65;;;10.50;;
78844;SDS011;68195;50.854;2.860;2023-04-06T09:09:33;16.80;;;9.50;;
78844;SDS011;68195;50.854;2.860;2023-04-06T09:11:58;17.25;;;10.30;;
78844;SDS011;68195;50.854;2.860;2023-04-06T09:14:37;14.90;;;9.98;;
78844;SDS011;68195;50.854;2.860;2023-04-06T09:17:03;14.90;;;10.38;;
78844;SDS011;68195;50.854;2.860;2023-04-06T09:19:34;19.67;;;11.27;;
78844;SDS011;68195;50.854;2.860;2023-04-06T09:22:12;16.92;;;10.98;;
78844;SDS011;68195;50.854;2.860;2023-04-06T09:24:47;15.18;;;10.18;;
78844;SDS011;68195;50.854;2.860;2023-04-06T09:27:12;16.02;;;10.73;;
78844;SDS011;68195;50.854;2.860;2023-04-06T09:29:40;18.60;;;10.82;;
78844;SDS011;68195;50.854;2.860;2023-04-06T09:32:09;16.13;;;10.82;;
78844;SDS011;68195;50.854;2.860;2023-04-06T09:34:44;15.50;;;10.73;;
78844;SDS011;68195;50.854;2.860;2023-04-06T09:39:39;17.48;;;10.57;;
78844;SDS011;68195;50.854;2.860;2023-04-06T09:42:09;14.50;;;9.98;;
78844;SDS011;68195;50.854;2.860;2023-04-06T09:44:37;15.07;;;9.82;;
78844;SDS011;68195;50.854;2.860;2023-04-06T09:47:03;17.25;;;10.52;;
78844;SDS011;68195;50.854;2.860;2023-04-06T09:49:34;15.23;;;10.00;;
78844;SDS011;68195;50.854;2.860;2023-04-06T09:52:01;16.95;;;10.48;;
78844;SDS011;68195;50.854;2.860;2023-04-06T09:54:30;16.85;;;11.02;;
78844;SDS011;68195;50.854;2.860;2023-04-06T10:07:30;15.77;;;9.40;;
78844;SDS011;68195;50.854;2.860;2023-04-06T10:09:56;16.83;;;11.48;;
78844;SDS011;68195;50.854;2.860;2023-04-06T10:12:29;14.98;;;9.82;;
78844;SDS011;68195;50.854;2.860;2023-04-06T10:14:55;15.43;;;9.95;;
78844;SDS011;68195;50.854;2.860;2023-04-06T10:22:32;15.68;;;9.55;;
78844;SDS011;68195;50.854;2.860;2023-04-06T10:25:04;16.55;;;10.10;;
78844;SDS011;68195;50.854;2.860;2023-04-06T10:27:30;14.77;;;9.23;;
78844;SDS011;68195;50.854;2.860;2023-04-06T10:30:04;12.82;;;7.82;;
78844;SDS011;68195;50.854;2.860;2023-04-06T10:35:09;13.93;;;8.50;;
78844;SDS011;68195;50.854;2.860;2023-04-06T10:37:51;12.93;;;8.18;;
78844;SDS011;68195;50.854;2.860;2023-04-06T10:40:27;13.60;;;8.18;;
78844;SDS011;68195;50.854;2.860;2023-04-06T10:42:53;11.10;;;7.28;;
78844;SDS011;68195;50.854;2.860;2023-04-06T10:45:31;11.50;;;8.05;;
78844;SDS011;68195;50.854;2.860;2023-04-06T10:47:57;10.77;;;7.55;;
78844;SDS011;68195;50.854;2.860;2023-04-06T10:50:23;11.55;;;7.28;;
78844;SDS011;68195;50.854;2.860;2023-04-06T10:52:58;12.35;;;7.72;;
78844;SDS011;68195;50.854;2.860;2023-04-06T10:55:27;9.48;;;6.70;;
78844;SDS011;68195;50.854;2.860;2023-04-06T10:57:56;9.23;;;6.80;;
78844;SDS011;68195;50.854;2.860;2023-04-06T11:00:22;11.35;;;7.03;;
78844;SDS011;68195;50.854;2.860;2023-04-06T11:02:47;8.27;;;6.15;;
78844;SDS011;68195;50.854;2.860;2023-04-06T11:05:14;9.43;;;6.88;;
78844;SDS011;68195;50.854;2.860;2023-04-06T11:07:45;8.18;;;5.32;;
78844;SDS011;68195;50.854;2.860;2023-04-06T11:10:20;10.95;;;6.28;;
78844;SDS011;68195;50.854;2.860;2023-04-06T11:12:55;10.25;;;6.25;;
78844;SDS011;68195;50.854;2.860;2023-04-06T11:15:23;10.13;;;6.45;;
78844;SDS011;68195;50.854;2.860;2023-04-06T11:17:51;8.65;;;5.78;;
78844;SDS011;68195;50.854;2.860;2023-04-06T11:20:22;7.90;;;5.78;;
78844;SDS011;68195;50.854;2.860;2023-04-06T11:22:51;8.43;;;5.90;;
78844;SDS011;68195;50.854;2.860;2023-04-06T11:25:17;8.93;;;6.03;;
78844;SDS011;68195;50.854;2.860;2023-04-06T11:27:46;8.73;;;6.60;;
78844;SDS011;68195;50.854;2.860;2023-04-06T11:30:11;7.72;;;5.18;;
78844;SDS011;68195;50.854;2.860;2023-04-06T11:32:40;9.10;;;5.38;;
78844;SDS011;68195;50.854;2.860;2023-04-06T11:35:10;8.43;;;5.35;;
78844;SDS011;68195;50.854;2.860;2023-04-06T11:37:45;7.82;;;5.30;;
78844;SDS011;68195;50.854;2.860;2023-04-06T11:40:11;9.18;;;5.03;;
78844;SDS011;68195;50.854;2.860;2023-04-06T11:42:39;6.68;;;4.45;;
78844;SDS011;68195;50.854;2.860;2023-04-06T11:45:05;8.10;;;4.75;;
78844;SDS011;68195;50.854;2.860;2023-04-06T11:47:36;6.03;;;4.35;;
78844;SDS011;68195;50.854;2.860;2023-04-06T11:50:12;5.45;;;3.85;;
78844;SDS011;68195;50.854;2.860;2023-04-06T11:52:41;7.50;;;3.78;;
78844;SDS011;68195;50.854;2.860;2023-04-06T11:55:14;6.35;;;3.83;;
78844;SDS011;68195;50.854;2.860;2023-04-06T11:57:43;5.68;;;3.92;;
78844;SDS011;68195;50.854;2.860;2023-04-06T12:00:10;6.20;;;3.72;;
78844;SDS011;68195;50.854;2.860;2023-04-06T12:02:39;5.57;;;3.40;;
78844;SDS011;68195;50.854;2.860;2023-04-06T12:05:04;4.30;;;3.03;;
78844;SDS011;68195;50.854;2.860;2023-04-06T12:07:31;4.30;;;2.72;;
78844;SDS011;68195;50.854;2.860;2023-04-06T12:10:01;5.95;;;2.83;;
78844;SDS011;68195;50.854;2.860;2023-04-06T12:12:30;4.47;;;2.67;;
78844;SDS011;68195;50.854;2.860;2023-04-06T12:14:57;4.60;;;2.90;;
78844;SDS011;68195;50.854;2.860;2023-04-06T12:17:25;3.78;;;2.25;;
78844;SDS011;68195;50.854;2.860;2023-04-06T12:19:51;3.05;;;2.25;;
78844;SDS011;68195;50.854;2.860;2023-04-06T12:22:19;6.55;;;2.38;;
78844;SDS011;68195;50.854;2.860;2023-04-06T12:24:45;4.57;;;2.60;;
78844;SDS011;68195;50.854;2.860;2023-04-06T12:27:15;5.43;;;2.10;;
78844;SDS011;68195;50.854;2.860;2023-04-06T12:29:41;6.55;;;2.53;;
78844;SDS011;68195;50.854;2.860;2023-04-06T12:34:33;5.53;;;1.90;;
78844;SDS011;68195;50.854;2.860;2023-04-06T12:37:01;5.40;;;2.30;;
78844;SDS011;68195;50.854;2.860;2023-04-06T12:39:29;3.25;;;2.10;;
78844;SDS011;68195;50.854;2.860;2023-04-06T12:41:56;7.45;;;2.63;;
78844;SDS011;68195;50.854;2.860;2023-04-06T12:44:24;4.43;;;2.40;;
78844;SDS011;68195;50.854;2.860;2023-04-06T12:46:52;3.92;;;2.65;;
78844;SDS011;68195;50.854;2.860;2023-04-06T12:49:20;8.95;;;2.60;;
78844;SDS011;68195;50.854;2.860;2023-04-06T12:51:46;6.38;;;2.10;;
78844;SDS011;68195;50.854;2.860;2023-04-06T12:54:15;6.18;;;2.88;;
78844;SDS011;68195;50.854;2.860;2023-04-06T12:56:44;5.93;;;2.35;;
78844;SDS011;68195;50.854;2.860;2023-04-06T12:59:10;5.28;;;3.85;;
78844;SDS011;68195;50.854;2.860;2023-04-06T13:01:36;7.32;;;2.40;;
78844;SDS011;68195;50.854;2.860;2023-04-06T13:04:05;5.15;;;2.20;;
78844;SDS011;68195;50.854;2.860;2023-04-06T13:06:30;7.22;;;2.67;;
78844;SDS011;68195;50.854;2.860;2023-04-06T13:08:56;5.13;;;2.20;;
78844;SDS011;68195;50.854;2.860;2023-04-06T13:11:25;7.78;;;2.28;;
78844;SDS011;68195;50.854;2.860;2023-04-06T13:13:51;8.57;;;2.88;;
78844;SDS011;68195;50.854;2.860;2023-04-06T13:16:19;6.10;;;3.05;;
78844;SDS011;68195;50.854;2.860;2023-04-06T13:18:44;7.97;;;2.58;;
78844;SDS011;68195;50.854;2.860;2023-04-06T13:21:15;4.20;;;2.28;;
78844;SDS011;68195;50.854;2.860;2023-04-06T13:23:41;10.30;;;2.58;;
78844;SDS011;68195;50.854;2.860;2023-04-06T13:26:07;7.03;;;2.40;;
78844;SDS011;68195;50.854;2.860;2023-04-06T13:28:33;9.00;;;2.83;;
78844;SDS011;68195;50.854;2.860;2023-04-06T13:31:00;9.68;;;2.65;;
78844;SDS011;68195;50.854;2.860;2023-04-06T13:33:27;7.72;;;2.47;;
78844;SDS011;68195;50.854;2.860;2023-04-06T13:35:53;6.10;;;2.22;;
78844;SDS011;68195;50.854;2.860;2023-04-06T13:38:19;7.50;;;2.22;;
78844;SDS011;68195;50.854;2.860;2023-04-06T13:40:44;6.75;;;2.22;;
78844;SDS011;68195;50.854;2.860;2023-04-06T13:43:12;6.43;;;2.58;;
78844;SDS011;68195;50.854;2.860;2023-04-06T13:45:48;7.95;;;2.70;;
78844;SDS011;68195;50.854;2.860;2023-04-06T13:48:15;10.25;;;2.38;;
78844;SDS011;68195;50.854;2.860;2023-04-06T13:50:43;4.95;;;2.13;;
78844;SDS011;68195;50.854;2.860;2023-04-06T13:53:09;9.27;;;2.85;;
78844;SDS011;68195;50.854;2.860;2023-04-06T13:55:36;9.45;;;3.03;;
78844;SDS011;68195;50.854;2.860;2023-04-06T13:58:02;5.72;;;2.67;;
78844;SDS011;68195;50.854;2.860;2023-04-06T14:00:32;11.05;;;2.35;;
78844;SDS011;68195;50.854;2.860;2023-04-06T14:03:05;7.03;;;3.05;;
78844;SDS011;68195;50.854;2.860;2023-04-06T14:05:33;8.38;;;3.30;;
78844;SDS011;68195;50.854;2.860;2023-04-06T14:08:01;8.63;;;2.72;;
78844;SDS011;68195;50.854;2.860;2023-04-06T14:10:28;8.50;;;3.25;;
78844;SDS011;68195;50.854;2.860;2023-04-06T14:12:56;10.30;;;3.05;;
78844;SDS011;68195;50.854;2.860;2023-04-06T14:15:23;9.52;;;3.20;;
78844;SDS011;68195;50.854;2.860;2023-04-06T14:17:48;10.35;;;2.50;;
78844;SDS011;68195;50.854;2.860;2023-04-06T14:20:17;10.05;;;2.92;;
78844;SDS011;68195;50.854;2.860;2023-04-06T14:22:48;8.27;;;2.65;;
78844;SDS011;68195;50.854;2.860;2023-04-06T14:25:14;9.32;;;2.28;;
78844;SDS011;68195;50.854;2.860;2023-04-06T14:27:41;9.48;;;2.50;;
78844;SDS011;68195;50.854;2.860;2023-04-06T14:30:10;6.78;;;2.70;;
78844;SDS011;68195;50.854;2.860;2023-04-06T14:32:36;11.40;;;2.92;;
78844;SDS011;68195;50.854;2.860;2023-04-06T14:35:05;5.75;;;2.22;;
78844;SDS011;68195;50.854;2.860;2023-04-06T14:37:31;10.93;;;2.72;;
78844;SDS011;68195;50.854;2.860;2023-04-06T14:39:56;9.82;;;3.28;;
78844;SDS011;68195;50.854;2.860;2023-04-06T14:42:24;9.15;;;3.50;;
78844;SDS011;68195;50.854;2.860;2023-04-06T14:44:50;10.00;;;2.63;;
78844;SDS011;68195;50.854;2.860;2023-04-06T14:47:15;9.30;;;3.58;;
78844;SDS011;68195;50.854;2.860;2023-04-06T14:49:45;7.40;;;2.67;;
78844;SDS011;68195;50.854;2.860;2023-04-06T14:52:12;7.00;;;2.83;;
78844;SDS011;68195;50.854;2.860;2023-04-06T14:54:39;11.38;;;2.75;;
78844;SDS011;68195;50.854;2.860;2023-04-06T14:57:05;7.65;;;2.40;;
78844;SDS011;68195;50.854;2.860;2023-04-06T14:59:32;11.82;;;2.78;;
78844;SDS011;68195;50.854;2.860;2023-04-06T15:02:01;8.48;;;3.42;;